createdAt,value
2022-08-22T00:03:10.013Z,18.17
2022-08-22T00:08:20.708Z,17.90
2022-08-22T00:14:01.390Z,17.86
2022-08-22T00:19:25.018Z,17.82
2022-08-22T00:24:56.916Z,17.76
2022-08-22T00:30:29.041Z,17.71
2022-08-22T00:36:00.738Z,17.64
2022-08-22T00:41:32.768Z,17.61
2022-08-22T00:47:05.111Z,17.55
2022-08-22T00:52:37.446Z,17.48
2022-08-22T00:58:09.446Z,17.42
2022-08-22T01:03:41.111Z,17.34
2022-08-22T01:09:13.080Z,17.31
2022-08-22T01:14:44.814Z,17.30
2022-08-22T01:20:16.696Z,17.24
2022-08-22T01:25:48.462Z,17.16
2022-08-22T01:31:20.527Z,17.12
2022-08-22T01:36:52.552Z,17.05
2022-08-22T01:42:24.624Z,17.03
2022-08-22T01:47:56.518Z,17.01
2022-08-22T01:53:28.657Z,16.96
2022-08-22T01:59:01.644Z,16.86
2022-08-22T02:04:32.447Z,16.82
2022-08-22T02:10:04.347Z,16.72
2022-08-22T02:15:36.092Z,16.72
2022-08-22T02:21:08.094Z,16.71
2022-08-22T02:26:40.158Z,16.67
2022-08-22T02:32:12.191Z,16.65
2022-08-22T02:37:44.020Z,16.64
2022-08-22T02:43:15.982Z,16.59
2022-08-22T02:48:48.282Z,16.54
2022-08-22T02:54:20.081Z,16.48
2022-08-22T02:59:52.131Z,16.50
2022-08-22T03:05:23.855Z,16.44
2022-08-22T03:10:55.763Z,16.40
2022-08-22T03:16:27.338Z,16.33
2022-08-22T03:21:59.117Z,16.29
2022-08-22T03:27:33.238Z,16.24
2022-08-22T03:33:03.457Z,16.20
2022-08-22T03:38:35.847Z,16.15
2022-08-22T03:44:07.891Z,16.03
2022-08-22T03:49:39.849Z,15.99
2022-08-22T03:55:12.209Z,15.93
2022-08-22T04:00:44.413Z,15.90
2022-08-22T04:06:16.557Z,15.89
2022-08-22T04:11:48.844Z,15.86
2022-08-22T04:17:20.821Z,15.86
2022-08-22T04:22:52.917Z,15.85
2022-08-22T04:28:24.710Z,15.88
2022-08-22T04:33:56.509Z,15.85
2022-08-22T04:39:28.401Z,15.89
2022-08-22T04:45:00.861Z,15.93
2022-08-22T04:50:32.860Z,16.02
2022-08-22T05:01:36.817Z,16.15
2022-08-22T05:07:08.592Z,16.24
2022-08-22T05:12:40.959Z,16.44
2022-08-22T05:18:12.941Z,16.61
2022-08-22T05:23:44.524Z,17.37
2022-08-22T05:29:16.649Z,18.17
2022-08-22T05:40:21.349Z,20.90
2022-08-22T05:45:53.344Z,22.65
2022-08-22T05:51:25.462Z,23.42
2022-08-22T05:56:57.793Z,24.90
2022-08-22T06:02:29.952Z,25.56
2022-08-22T06:08:02.064Z,26.72
2022-08-22T06:13:34.129Z,27.19
2022-08-22T06:19:19.254Z,28.09
2022-08-22T06:24:38.501Z,28.60
2022-08-22T06:30:10.131Z,29.46
2022-08-22T06:35:41.965Z,29.74
2022-08-22T06:41:13.697Z,29.84
2022-08-22T06:46:47.944Z,30.01
2022-08-22T06:52:19.615Z,30.91
2022-08-22T06:57:51.516Z,31.30
2022-08-22T07:03:23.473Z,31.59
2022-08-22T07:08:55.568Z,31.61
2022-08-22T07:14:27.376Z,30.56
2022-08-22T07:19:59.226Z,29.94
2022-08-22T07:31:02.946Z,28.64
2022-08-22T07:36:34.613Z,27.88
2022-08-22T07:47:38.130Z,30.22
2022-08-22T07:58:41.812Z,31.16
2022-08-22T08:04:13.818Z,31.18
2022-08-22T08:09:45.596Z,31.50
2022-08-22T08:15:17.086Z,31.80
2022-08-22T08:20:48.804Z,32.28
2022-08-22T08:26:20.726Z,32.22
2022-08-22T08:31:52.636Z,32.39
2022-08-22T08:37:24.491Z,32.32
2022-08-22T08:42:56.502Z,32.56
2022-08-22T08:48:28.571Z,32.35
2022-08-22T08:54:00.498Z,31.96
2022-08-22T08:59:32.474Z,31.95
2022-08-22T09:10:36.182Z,32.15
2022-08-22T09:16:08.177Z,32.16
2022-08-22T09:21:40.370Z,32.21
2022-08-22T09:23:53.441Z,32.33
2022-08-22T09:29:23.204Z,32.38
2022-08-22T09:34:54.854Z,31.91
2022-08-22T09:45:58.483Z,30.74
2022-08-22T09:51:32.014Z,30.29
2022-08-22T10:02:34.537Z,29.16
2022-08-22T10:08:06.447Z,28.77
2022-08-22T10:13:38.394Z,28.64
2022-08-22T10:19:10.416Z,28.32
2022-08-22T10:24:44.141Z,28.15
2022-08-22T10:30:16.366Z,27.99
2022-08-22T10:35:45.876Z,27.96
2022-08-22T10:41:17.354Z,27.78
2022-08-22T10:46:49.509Z,27.65
2022-08-22T10:52:21.207Z,27.60
2022-08-22T11:03:23.549Z,27.64
2022-08-22T11:08:54.794Z,27.71
2022-08-22T11:19:58.545Z,27.72
2022-08-22T11:25:38.465Z,27.88
2022-08-22T11:31:01.859Z,28.11
2022-08-22T11:36:33.646Z,28.30
2022-08-22T11:42:05.812Z,28.33
2022-08-22T11:47:37.527Z,28.33
2022-08-22T11:53:09.390Z,28.34
2022-08-22T11:58:41.037Z,28.44
2022-08-22T12:04:12.933Z,28.37
2022-08-22T12:09:44.689Z,28.22
2022-08-22T12:23:08.330Z,0.00
2022-08-22T12:28:39.973Z,27.51
2022-08-22T12:34:11.696Z,27.46
2022-08-22T12:39:43.713Z,27.41
2022-08-22T12:45:15.385Z,27.34
2022-08-22T12:50:47.402Z,27.40
2022-08-22T13:01:48.846Z,27.57
2022-08-22T13:07:22.797Z,27.67
2022-08-22T13:12:52.904Z,27.68
2022-08-22T13:18:29.783Z,27.60
2022-08-22T13:26:31.796Z,27.39
2022-08-22T13:31:47.795Z,27.39
2022-08-22T13:42:49.460Z,27.37
2022-08-22T13:48:21.359Z,27.41
2022-08-22T13:56:15.494Z,27.57
2022-08-22T14:01:45.774Z,27.68
2022-08-22T14:07:17.469Z,27.81
2022-08-22T14:12:50.936Z,27.77
2022-08-22T14:18:21.267Z,27.89
2022-08-22T14:23:53.105Z,27.91
2022-08-22T14:29:24.974Z,27.78
2022-08-22T14:34:58.888Z,27.78
2022-08-22T14:40:28.699Z,27.68
2022-08-22T14:46:02.197Z,27.54
2022-08-22T14:51:32.405Z,27.16
2022-08-22T14:57:04.634Z,26.98
2022-08-22T15:02:36.658Z,26.92
2022-08-22T15:08:08.849Z,26.91
2022-08-22T15:13:40.703Z,26.92
2022-08-22T15:24:42.769Z,26.85
2022-08-22T15:30:18.806Z,26.86
2022-08-22T15:35:45.516Z,26.84
2022-08-22T15:41:17.507Z,26.94
2022-08-22T15:52:18.870Z,26.68
2022-08-22T15:57:50.940Z,26.50
2022-08-22T16:03:24.364Z,26.47
2022-08-22T16:08:56.315Z,26.34
2022-08-22T16:14:29.661Z,26.27
2022-08-22T16:20:00.407Z,26.09
2022-08-22T16:25:32.134Z,25.95
2022-08-22T16:31:03.583Z,25.69
2022-08-22T16:36:35.811Z,25.51
2022-08-22T16:42:07.416Z,25.27
2022-08-22T16:47:39.437Z,25.07
2022-08-22T16:53:11.089Z,24.88
2022-08-22T16:58:56.958Z,24.81
2022-08-22T17:04:14.970Z,24.60
2022-08-22T17:09:47.247Z,24.55
2022-08-22T17:15:19.403Z,24.39
2022-08-22T17:20:51.058Z,24.30
2022-08-22T17:26:23.218Z,24.23
2022-08-22T17:31:55.338Z,24.12
2022-08-22T17:37:26.924Z,23.93
2022-08-22T17:42:58.816Z,23.86
2022-08-22T17:48:30.656Z,23.68
2022-08-22T17:54:02.440Z,23.59
2022-08-22T17:59:33.830Z,23.36
2022-08-22T18:05:05.301Z,23.27
2022-08-22T18:10:37.185Z,23.19
2022-08-22T18:16:08.649Z,22.93
2022-08-22T18:21:40.556Z,22.80
2022-08-22T18:27:29.686Z,22.57
2022-08-22T18:32:43.986Z,22.42
2022-08-22T18:38:19.768Z,22.20
2022-08-22T18:43:47.719Z,22.07
2022-08-22T18:51:40.784Z,21.75
2022-08-22T18:57:12.556Z,21.65
2022-08-22T19:02:47.055Z,21.42
2022-08-22T19:08:15.622Z,21.33
2022-08-22T19:13:47.139Z,21.16
2022-08-22T19:19:18.889Z,21.06
2022-08-22T19:24:50.162Z,20.88
2022-08-22T19:30:21.640Z,20.79
2022-08-22T19:35:53.617Z,20.71
2022-08-22T19:41:25.693Z,20.55
2022-08-22T19:46:56.859Z,20.48
2022-08-22T19:52:28.236Z,20.35
2022-08-22T19:57:59.483Z,20.24
2022-08-22T20:03:30.877Z,20.12
2022-08-22T20:09:02.473Z,20.03
2022-08-22T20:14:34.290Z,19.87
2022-08-22T20:20:27.943Z,19.80
2022-08-22T20:25:42.730Z,19.69
2022-08-22T20:31:09.643Z,19.59
2022-08-22T20:36:41.079Z,19.52
2022-08-22T20:42:12.550Z,19.44
2022-08-22T20:47:48.923Z,19.33
2022-08-22T20:53:15.898Z,19.29
2022-08-22T20:58:47.233Z,19.19
2022-08-22T21:04:19.008Z,19.09
2022-08-22T21:09:50.509Z,18.96
2022-08-22T21:15:22.558Z,18.86
2022-08-22T21:20:54.312Z,18.71
2022-08-22T21:26:26.343Z,18.67
2022-08-22T21:31:59.214Z,18.57
2022-08-22T21:37:29.828Z,18.51
2022-08-22T21:43:01.716Z,18.41
2022-08-22T21:48:33.757Z,18.38
2022-08-22T21:54:17.687Z,18.25
2022-08-22T21:59:58.737Z,18.19
2022-08-22T22:05:12.400Z,18.09
2022-08-22T22:10:44.015Z,18.00
2022-08-22T22:16:16.262Z,17.89
2022-08-22T22:21:48.573Z,17.86
2022-08-22T22:27:20.549Z,17.78
2022-08-22T22:32:52.494Z,17.74
2022-08-22T22:38:24.371Z,17.69
2022-08-22T22:43:56.388Z,17.69
2022-08-22T22:49:28.197Z,17.64
2022-08-22T23:00:31.803Z,17.50
2022-08-22T23:06:03.566Z,17.41
2022-08-22T23:11:35.487Z,17.27
2022-08-22T23:22:39.009Z,17.16
2022-08-22T23:28:10.820Z,17.13
2022-08-22T23:33:42.494Z,17.07
2022-08-22T23:44:46.874Z,16.91
2022-08-22T23:55:50.310Z,16.52
